Time;durP1;ratioP1;P1;durP2;ratioP2;P2;SDS_P1;SDS_P2;PMS_P1;PMS_P2;Temp;Humidity;BMP_temperature;BMP_pressure;BME280_temperature;BME280_humidity;BME280_pressure;Samples;Min_cycle;Max_cycle;Signal;HPM_P1;HPM_P2
2021/04/03 00:01:18;;;;;;;3.94;3.03;;;;;;;5.73;56.09;100005.25;2024122;77;21219;-65
2021/04/03 00:04:20;;;;;;;6.18;3.01;;;;;;;5.74;55.92;99998.41;2022038;79;20496;-65
2021/04/03 00:07:22;;;;;;;4.99;3.84;;;;;;;5.74;55.05;100003.56;2022166;80;20347;-65
2021/04/03 00:10:52;;;;;;;4.95;3.78;;;;;;;5.74;54.95;99999.31;2022340;80;20341;-65
2021/04/03 00:13:54;;;;;;;3.83;2.80;;;;;;;5.78;54.77;99999.38;2018401;80;20363;-65
2021/04/03 00:16:55;;;;;;;6.35;3.59;;;;;;;5.79;54.79;100001.13;2020957;77;22069;-65
2021/04/03 00:19:57;;;;;;;6.80;3.60;;;;;;;5.85;54.69;99993.53;2021547;80;20300;-65
2021/04/03 00:22:59;;;;;;;3.34;2.92;;;;;;;5.86;54.76;99992.69;2022589;80;20333;-64
2021/04/03 00:26:01;;;;;;;5.00;2.90;;;;;;;5.88;54.75;100001.31;2021880;80;20335;-65
2021/04/03 00:29:02;;;;;;;6.16;3.29;;;;;;;5.89;54.32;99995.31;2023125;80;20336;-65
2021/04/03 00:32:04;;;;;;;3.59;2.97;;;;;;;5.91;54.26;99997.13;2017659;77;29481;-65
2021/04/03 00:35:07;;;;;;;5.20;3.39;;;;;;;5.93;54.25;100002.34;2020307;80;20311;-65
2021/04/03 00:38:09;;;;;;;4.39;3.80;;;;;;;5.91;53.40;99997.13;2022427;80;20354;-65
2021/04/03 00:41:11;;;;;;;5.95;3.00;;;;;;;5.93;53.43;99997.22;2021997;80;20304;-65
2021/04/03 00:44:12;;;;;;;3.67;3.19;;;;;;;5.94;53.65;99997.25;2021708;80;20303;-65
2021/04/03 00:47:15;;;;;;;4.18;3.08;;;;;;;5.95;53.19;100003.25;2025038;77;21861;-65
2021/04/03 00:50:26;;;;;;;3.34;2.79;;;;;;;5.95;53.60;99998.09;2026797;79;20295;-65
2021/04/03 00:53:28;;;;;;;6.70;3.59;;;;;;;5.98;53.49;99993.03;2026654;79;20364;-65
2021/04/03 00:56:30;;;;;;;3.78;2.55;;;;;;;6.02;53.47;99997.41;2027199;79;20333;-65
2021/04/03 00:59:32;;;;;;;3.49;2.80;;;;;;;6.03;53.14;99986.25;2027269;79;20353;-65
2021/04/03 01:02:35;;;;;;;3.59;2.91;;;;;;;6.05;52.88;99985.44;2026052;77;21859;-65
2021/04/03 01:05:37;;;;;;;5.84;3.10;;;;;;;6.08;52.49;99982.06;2027080;79;20335;-65
2021/04/03 01:08:38;;;;;;;6.20;3.10;;;;;;;6.08;52.60;99989.81;2027089;79;20310;-65
2021/04/03 01:11:48;;;;;;;3.95;2.90;;;;;;;6.04;52.23;99982.84;2026921;79;20370;-65
2021/04/03 01:15:08;;;;;;;2.59;2.34;;;;;;;6.05;52.11;99989.75;2026579;79;20341;-65
2021/04/03 01:18:22;;;;;;;3.06;2.28;;;;;;;6.03;52.06;99981.97;2021461;77;20311;-65
2021/04/03 01:21:26;;;;;;;4.13;2.39;;;;;;;6.03;52.43;99973.38;2022210;80;20332;-66
2021/04/03 01:24:55;;;;;;;2.85;2.05;;;;;;;6.04;52.14;99973.41;2021014;80;20308;-65
2021/04/03 01:28:22;;;;;;;1.86;1.58;;;;;;;6.10;52.37;99979.53;2021776;80;20324;-65
2021/04/03 01:31:24;;;;;;;2.92;1.92;;;;;;;6.09;51.96;99980.38;2022821;80;22740;-65
2021/04/03 01:34:30;;;;;;;2.99;1.79;;;;;;;6.07;51.78;99980.31;2027352;80;20362;-65
2021/04/03 01:37:38;;;;;;;2.65;1.71;;;;;;;6.07;52.53;99975.16;2026922;80;21217;-65
2021/04/03 01:40:39;;;;;;;3.80;2.25;;;;;;;6.10;52.30;99969.22;2027006;80;20323;-65
2021/04/03 01:43:45;;;;;;;2.81;1.54;;;;;;;6.12;52.61;99976.16;2026560;80;20731;-65
2021/04/03 01:46:49;;;;;;;4.38;2.36;;;;;;;6.15;52.21;99973.66;2028471;78;22019;-65
2021/04/03 01:49:53;;;;;;;3.40;2.11;;;;;;;6.18;52.19;99975.44;2032237;79;20331;-65
2021/04/03 01:52:55;;;;;;;2.96;1.20;;;;;;;6.21;52.01;99980.66;2031745;79;20305;-64
2021/04/03 01:55:57;;;;;;;1.42;1.33;;;;;;;6.23;51.54;99978.97;2031829;79;20560;-65
2021/04/03 01:58:59;;;;;;;1.86;1.30;;;;;;;6.23;51.15;99971.25;2032707;79;20309;-65
2021/04/03 02:02:01;;;;;;;1.92;1.23;;;;;;;6.24;51.16;99966.09;2031543;76;20342;-65
2021/04/03 02:05:04;;;;;;;1.14;1.04;;;;;;;6.25;50.99;99960.13;2033370;79;20381;-65
2021/04/03 02:08:07;;;;;;;2.16;1.06;;;;;;;6.28;51.05;99954.16;2033360;79;20314;-65
2021/04/03 02:11:09;;;;;;;2.13;1.20;;;;;;;6.31;51.40;99959.41;2033797;79;20347;-65
2021/04/03 02:14:11;;;;;;;1.31;1.20;;;;;;;6.30;51.43;99952.50;2033458;79;20318;-65
2021/04/03 02:17:16;;;;;;;1.60;1.09;;;;;;;6.26;50.93;99963.56;2030295;77;20299;-65
2021/04/03 02:20:18;;;;;;;2.51;1.15;;;;;;;6.24;51.16;99958.38;2028864;79;20352;-65
2021/04/03 02:23:19;;;;;;;2.63;1.52;;;;;;;6.25;51.12;99951.50;2028641;79;20532;-64
2021/04/03 02:26:21;;;;;;;2.71;1.49;;;;;;;6.27;51.24;99955.84;2029210;79;20384;-65
2021/04/03 02:29:23;;;;;;;3.79;1.50;;;;;;;6.27;51.27;99965.31;2029232;79;20314;-64
2021/04/03 02:32:24;;;;;;;2.51;1.64;;;;;;;6.26;51.87;99967.00;2027671;77;20636;-65
2021/04/03 02:35:29;;;;;;;2.17;1.67;;;;;;;6.25;51.81;99948.94;2028684;79;20352;-65
2021/04/03 02:38:30;;;;;;;5.76;3.01;;;;;;;6.25;51.73;99952.38;2028867;79;20328;-65
2021/04/03 02:41:55;;;;;;;4.40;2.63;;;;;;;6.25;51.45;99947.22;2029338;79;20354;-65
2021/04/03 02:45:02;;;;;;;4.72;2.38;;;;;;;6.26;51.34;99960.97;2028801;79;20340;-65
2021/04/03 02:48:10;;;;;;;3.09;2.13;;;;;;;6.24;51.14;99960.09;2026547;77;20652;-65
2021/04/03 02:51:14;;;;;;;5.60;2.69;;;;;;;6.25;50.71;99942.06;2023593;80;20339;-65
2021/04/03 02:54:20;;;;;;;2.14;1.79;;;;;;;6.26;50.95;99943.81;2023371;80;20332;-65
2021/04/03 02:57:23;;;;;;;2.80;1.73;;;;;;;6.28;50.34;99956.72;2023225;80;20483;-65
2021/04/03 03:00:26;;;;;;;2.50;1.67;;;;;;;6.26;50.24;99960.97;2023915;78;22568;-65
2021/04/03 03:03:31;;;;;;;1.42;1.17;;;;;;;6.26;50.15;99959.28;2027338;79;20350;-65
2021/04/03 03:06:34;;;;;;;5.53;1.54;;;;;;;6.19;49.14;99953.97;2027823;79;20303;-65
2021/04/03 03:09:36;;;;;;;3.41;1.25;;;;;;;6.19;49.30;99960.00;2028297;79;20715;-65
2021/04/03 03:12:39;;;;;;;2.16;1.17;;;;;;;6.21;49.30;99965.19;2027266;79;20845;-65
2021/04/03 03:15:41;;;;;;;3.61;1.11;;;;;;;6.18;49.45;99968.56;2027818;78;22560;-65
2021/04/03 03:18:43;;;;;;;3.42;1.20;;;;;;;6.20;49.71;99959.16;2032702;79;20932;-66
2021/04/03 03:21:45;;;;;;;3.83;1.92;;;;;;;6.23;49.34;99966.94;2033704;79;20734;-65
2021/04/03 03:24:47;;;;;;;5.44;3.06;;;;;;;6.24;49.46;99960.09;2032110;79;20318;-65
2021/04/03 03:27:49;;;;;;;5.69;3.71;;;;;;;6.26;49.64;99959.28;2032880;79;20317;-65
2021/04/03 03:30:51;;;;;;;6.15;2.50;;;;;;;6.29;49.66;99954.22;2029874;77;21051;-65
2021/04/03 03:33:53;;;;;;;1.56;1.36;;;;;;;6.28;49.28;99954.16;2027140;79;20334;-64
2021/04/03 03:36:56;;;;;;;1.94;1.10;;;;;;;6.29;49.38;99953.34;2027369;79;20348;-64
2021/04/03 03:39:58;;;;;;;2.08;1.14;;;;;;;6.26;49.32;99963.56;2027176;79;21146;-65
2021/04/03 03:43:01;;;;;;;4.84;1.38;;;;;;;6.28;49.67;99969.63;2026839;79;20327;-65
2021/04/03 03:46:05;;;;;;;3.99;1.21;;;;;;;6.28;49.35;99972.19;2026770;79;20880;-65
2021/04/03 03:49:07;;;;;;;3.65;1.27;;;;;;;6.29;49.54;99976.56;2027931;79;20345;-65
2021/04/03 03:52:08;;;;;;;4.79;1.20;;;;;;;6.28;49.59;99962.78;2028160;79;20973;-65
2021/04/03 03:55:11;;;;;;;1.60;1.04;;;;;;;6.30;49.88;99971.44;2026861;79;20287;-64
2021/04/03 03:58:12;;;;;;;2.22;0.93;;;;;;;6.25;49.51;99967.84;2028405;79;20343;-65
2021/04/03 04:01:14;;;;;;;1.52;0.90;;;;;;;6.28;49.34;99975.69;2026290;77;20940;-65
2021/04/03 04:04:16;;;;;;;2.08;0.98;;;;;;;6.25;48.97;99972.13;2027446;79;20384;-64
2021/04/03 04:07:18;;;;;;;2.99;1.27;;;;;;;6.19;49.28;99972.88;2026851;79;20294;-65
2021/04/03 04:10:19;;;;;;;1.75;0.85;;;;;;;6.20;49.28;99977.19;2027113;79;20331;-64
2021/04/03 04:13:21;;;;;;;2.24;1.52;;;;;;;6.18;49.00;99971.16;2026939;79;20330;-64
2021/04/03 04:16:23;;;;;;;2.28;1.20;;;;;;;6.20;49.49;99966.88;2026683;77;20364;-65
2021/04/03 04:19:25;;;;;;;2.49;1.15;;;;;;;6.18;49.37;99960.81;2027223;79;21450;-65
2021/04/03 04:22:26;;;;;;;2.06;0.99;;;;;;;6.19;49.92;99969.44;2026835;79;20400;-64
2021/04/03 04:25:28;;;;;;;1.40;1.00;;;;;;;6.19;49.29;99975.47;2026569;79;20323;-65
2021/04/03 04:28:34;;;;;;;2.74;1.35;;;;;;;6.18;48.65;99985.75;2027177;79;20310;-65
2021/04/03 04:31:36;;;;;;;2.29;1.00;;;;;;;6.18;47.92;99983.16;2028636;77;20317;-65
2021/04/03 04:34:37;;;;;;;3.08;0.99;;;;;;;6.18;47.96;99983.16;2033299;79;20310;-64
2021/04/03 04:37:40;;;;;;;2.01;0.94;;;;;;;6.16;47.76;99984.84;2031457;79;20830;-65
2021/04/03 04:40:42;;;;;;;2.06;1.00;;;;;;;6.18;47.95;99980.59;2031970;79;20337;-65
2021/04/03 04:43:43;;;;;;;2.44;1.08;;;;;;;6.18;48.30;99984.03;2031708;79;20368;-65
2021/04/03 04:46:45;;;;;;;0.96;0.93;;;;;;;6.16;47.58;99977.97;2029628;79;21189;-65
2021/04/03 04:49:46;;;;;;;2.26;1.00;;;;;;;6.16;47.73;99983.13;2027446;79;20380;-65
2021/04/03 04:52:48;;;;;;;1.75;0.98;;;;;;;6.19;47.90;99988.34;2027309;79;20307;-65
2021/04/03 04:55:50;;;;;;;3.16;1.14;;;;;;;6.23;48.08;99989.28;2026731;79;20367;-65
2021/04/03 04:58:52;;;;;;;4.54;1.59;;;;;;;6.18;48.23;99993.47;2027717;79;20334;-65
2021/04/03 05:01:53;;;;;;;3.21;0.84;;;;;;;6.15;47.47;99989.13;2025759;77;20355;-65
2021/04/03 05:04:55;;;;;;;2.41;1.14;;;;;;;6.19;47.82;99996.09;2027048;79;20439;-65
2021/04/03 05:07:56;;;;;;;3.64;1.08;;;;;;;6.20;47.96;100003.00;2027290;79;21005;-65
2021/04/03 05:10:58;;;;;;;3.33;1.05;;;;;;;6.21;47.89;100002.16;2026840;79;20386;-68
2021/04/03 05:14:00;;;;;;;1.75;0.80;;;;;;;6.20;48.21;100004.69;2027059;79;20875;-66
2021/04/03 05:17:02;;;;;;;5.85;1.40;;;;;;;6.21;48.64;100002.16;2024864;77;23543;-66
2021/04/03 05:20:05;;;;;;;1.92;0.80;;;;;;;6.18;48.20;100003.78;2027592;79;20314;-66
2021/04/03 05:23:06;;;;;;;1.67;1.00;;;;;;;6.19;48.37;100010.69;2026211;80;20340;-65
2021/04/03 05:26:08;;;;;;;3.92;1.52;;;;;;;6.19;48.73;100013.25;2026960;79;20196;-65
2021/04/03 05:29:10;;;;;;;5.70;1.00;;;;;;;6.21;48.96;100021.91;2027544;79;20412;-66
2021/04/03 05:32:11;;;;;;;1.69;1.01;;;;;;;6.25;49.39;100021.13;2029265;77;33396;-66
2021/04/03 05:35:13;;;;;;;4.00;1.41;;;;;;;6.25;49.08;100027.16;2031974;79;20333;-65
2021/04/03 05:38:15;;;;;;;4.05;1.01;;;;;;;6.25;48.96;100024.59;2032759;79;20290;-65
2021/04/03 05:41:16;;;;;;;2.46;1.05;;;;;;;6.28;49.20;100021.19;2032073;79;20313;-65
2021/04/03 05:44:21;;;;;;;3.99;0.94;;;;;;;6.28;49.50;100018.63;2032366;79;20344;-66
2021/04/03 05:47:24;;;;;;;2.10;0.90;;;;;;;6.32;49.61;100020.47;2030955;77;20503;-66
2021/04/03 05:50:27;;;;;;;2.71;1.38;;;;;;;6.32;48.85;100026.47;2033383;79;20798;-68
2021/04/03 05:53:28;;;;;;;2.67;1.19;;;;;;;6.36;48.84;100032.56;2032547;79;20343;-68
2021/04/03 05:56:32;;;;;;;5.28;1.09;;;;;;;6.39;49.71;100035.22;2032740;79;20445;-67
2021/04/03 05:59:34;;;;;;;2.46;0.99;;;;;;;6.34;50.20;100029.97;2033325;79;20353;-67
2021/04/03 06:02:40;;;;;;;2.64;0.98;;;;;;;6.38;50.25;100036.06;2027317;78;50883;-66
2021/04/03 06:05:43;;;;;;;1.19;0.74;;;;;;;6.42;50.14;100037.88;2025974;79;21025;-67
2021/04/03 06:08:45;;;;;;;6.69;1.05;;;;;;;6.44;50.51;100036.19;2026421;79;20461;-67
2021/04/03 06:11:49;;;;;;;5.26;1.24;;;;;;;6.47;49.86;100027.66;2027821;79;20986;-67
2021/04/03 06:14:50;;;;;;;3.33;1.34;;;;;;;6.49;49.73;100024.28;2026884;79;20319;-66
2021/04/03 06:17:56;;;;;;;3.19;1.10;;;;;;;6.52;49.70;100033.78;2032163;77;20616;-65
2021/04/03 06:21:07;;;;;;;4.00;1.19;;;;;;;6.52;49.16;100038.97;2032339;79;20339;-66
2021/04/03 06:24:20;;;;;;;4.20;1.11;;;;;;;6.55;49.44;100047.63;2032113;79;20450;-66
2021/04/03 06:27:21;;;;;;;4.09;1.08;;;;;;;6.59;49.81;100049.44;2032416;79;20318;-65
2021/04/03 06:30:38;;;;;;;6.26;1.33;;;;;;;6.66;49.64;100058.19;2031393;77;21554;-66
2021/04/03 06:33:39;;;;;;;3.03;1.11;;;;;;;6.68;49.41;100051.34;2028380;79;20800;-66
2021/04/03 06:36:45;;;;;;;3.63;1.79;;;;;;;6.73;49.79;100054.03;2025907;79;20352;-66
2021/04/03 06:39:58;;;;;;;5.34;1.17;;;;;;;6.73;49.59;100060.06;2025342;79;20343;-65
2021/04/03 06:42:59;;;;;;;2.60;1.26;;;;;;;6.77;49.75;100059.28;2025459;79;21095;-66
2021/04/03 06:46:01;;;;;;;2.74;1.24;;;;;;;6.81;50.36;100061.09;2023933;77;24998;-66
2021/04/03 06:49:04;;;;;;;3.86;1.55;;;;;;;6.88;51.00;100056.94;2026158;79;20913;-67
2021/04/03 06:52:06;;;;;;;5.00;1.73;;;;;;;6.92;51.30;100062.19;2025770;79;20295;-67
2021/04/03 06:55:11;;;;;;;3.61;1.81;;;;;;;6.95;51.53;100057.09;2025156;79;20742;-65
2021/04/03 06:58:13;;;;;;;4.14;1.94;;;;;;;6.98;51.81;100062.31;2025455;79;20311;-65
2021/04/03 07:01:17;;;;;;;3.71;2.05;;;;;;;7.05;52.46;100058.16;2024466;77;21712;-65
2021/04/03 07:04:26;;;;;;;6.65;2.00;;;;;;;7.04;51.79;100065.88;2025138;79;20863;-69
2021/04/03 07:07:29;;;;;;;5.76;1.81;;;;;;;7.10;52.05;100061.69;2025632;79;20807;-66
2021/04/03 07:10:33;;;;;;;4.71;1.66;;;;;;;7.19;52.09;100068.78;2025771;79;20192;-67
2021/04/03 07:13:36;;;;;;;4.95;2.31;;;;;;;7.32;52.23;100075.03;2025079;79;20469;-66
2021/04/03 07:16:40;;;;;;;4.05;2.00;;;;;;;7.39;52.05;100071.75;2027331;77;20862;-68
2021/04/03 07:19:43;;;;;;;5.26;1.88;;;;;;;7.38;51.97;100073.47;2032458;79;20314;-67
2021/04/03 07:22:51;;;;;;;3.24;1.80;;;;;;;7.42;52.37;100076.97;2032029;79;20835;-68
2021/04/03 07:25:59;;;;;;;7.38;2.13;;;;;;;7.55;53.05;100074.66;2032640;79;20189;-68
2021/04/03 07:29:00;;;;;;;4.05;1.81;;;;;;;7.62;52.66;100075.63;2032395;79;20186;-66
2021/04/03 07:32:02;;;;;;;5.86;1.80;;;;;;;7.72;52.31;100079.22;2028264;77;65463;-66
2021/04/03 07:35:22;;;;;;;6.38;1.90;;;;;;;7.75;51.37;100080.19;2025813;79;21321;-65
2021/04/03 07:38:34;;;;;;;6.26;1.98;;;;;;;7.73;51.22;100078.41;2026978;79;20688;-67
2021/04/03 07:41:38;;;;;;;5.90;1.75;;;;;;;7.79;51.41;100084.56;2027285;79;20209;-68
2021/04/03 07:44:40;;;;;;;4.84;1.51;;;;;;;7.91;51.15;100089.09;2026739;79;20195;-67
2021/04/03 07:47:47;;;;;;;6.64;2.01;;;;;;;7.96;50.87;100083.97;2030224;78;22736;-65
2021/04/03 07:50:50;;;;;;;5.55;2.34;;;;;;;8.04;51.04;100095.31;2032285;79;21108;-68
2021/04/03 07:54:20;;;;;;;5.35;3.05;;;;;;;8.00;50.75;100089.22;2032152;79;20257;-67
2021/04/03 07:57:34;;;;;;;7.64;1.84;;;;;;;8.01;50.62;100085.78;2032456;79;20195;-68
2021/04/03 08:00:40;;;;;;;4.63;1.72;;;;;;;8.03;50.68;100086.69;2030092;77;20162;-67
2021/04/03 08:03:53;;;;;;;4.61;1.76;;;;;;;8.11;50.44;100085.13;2027010;79;20465;-66
2021/04/03 08:06:59;;;;;;;5.28;1.85;;;;;;;8.18;50.72;100093.84;2026932;79;20751;-67
2021/04/03 08:10:01;;;;;;;7.44;2.03;;;;;;;8.26;50.23;100093.94;2026586;79;20615;-68
2021/04/03 08:13:03;;;;;;;2.85;1.83;;;;;;;8.35;50.22;100094.16;2026548;79;20794;-71
2021/04/03 08:16:07;;;;;;;6.63;2.14;;;;;;;8.39;49.77;100095.94;2024756;77;20174;-68
2021/04/03 08:19:09;;;;;;;7.74;2.36;;;;;;;8.48;49.67;100107.31;2026505;79;20162;-68
2021/04/03 08:22:11;;;;;;;6.79;2.29;;;;;;;8.42;48.75;100106.31;2027332;79;20188;-68
2021/04/03 08:25:13;;;;;;;6.64;2.36;;;;;;;8.39;48.25;100109.72;2026067;79;20190;-68
2021/04/03 08:28:19;;;;;;;5.85;2.85;;;;;;;8.41;48.74;100104.56;2027442;79;20559;-68
2021/04/03 08:31:26;;;;;;;5.49;1.63;;;;;;;8.45;48.77;100106.41;2026331;78;20175;-79
2021/04/03 08:34:28;;;;;;;5.05;2.05;;;;;;;8.46;48.06;100113.31;2027726;79;20178;-79
2021/04/03 08:37:30;;;;;;;7.26;2.83;;;;;;;8.42;48.05;100121.84;2026481;79;20182;-79
2021/04/03 08:40:32;;;;;;;4.13;1.61;;;;;;;8.44;48.00;100126.22;2028085;79;20182;-80
2021/04/03 08:43:34;;;;;;;3.00;1.48;;;;;;;8.63;48.06;100123.94;2027835;79;20335;-79
2021/04/03 08:46:36;;;;;;;4.04;1.69;;;;;;;8.77;47.73;100130.16;2028609;77;20403;-79
2021/04/03 08:49:41;;;;;;;6.07;2.10;;;;;;;8.87;47.75;100132.03;2034247;79;20199;-80
2021/04/03 08:52:44;;;;;;;2.53;1.48;;;;;;;9.04;46.91;100134.88;2033481;79;20205;-80
2021/04/03 08:55:45;;;;;;;4.75;2.24;;;;;;;9.15;46.46;100140.16;2034496;79;20548;-80
2021/04/03 08:58:47;;;;;;;4.99;2.08;;;;;;;9.21;46.21;100145.47;2033787;79;20227;-80
2021/04/03 09:01:52;;;;;;;5.49;2.61;;;;;;;9.22;46.08;100142.00;2029528;77;48785;-68
2021/04/03 09:04:55;;;;;;;6.95;2.74;;;;;;;9.33;45.55;100145.59;2026404;79;20373;-68
2021/04/03 09:07:57;;;;;;;5.43;2.54;;;;;;;9.40;45.48;100142.25;2026955;79;20178;-69
2021/04/03 09:11:01;;;;;;;5.61;2.19;;;;;;;9.47;45.55;100156.13;2026860;79;20920;-68
2021/04/03 09:14:03;;;;;;;5.01;2.26;;;;;;;9.48;45.22;100152.69;2026934;79;20730;-68
2021/04/03 09:17:17;;;;;;;7.55;3.38;;;;;;;9.42;44.90;100153.50;2026691;77;22708;-81
2021/04/03 09:20:24;;;;;;;5.25;2.24;;;;;;;9.50;44.56;100158.75;2028103;79;20224;-80
2021/04/03 09:23:26;;;;;;;4.51;1.92;;;;;;;9.46;44.97;100162.19;2027673;79;20197;-80
2021/04/03 09:26:34;;;;;;;6.97;2.58;;;;;;;9.37;44.27;100153.44;2028525;79;20185;-80
2021/04/03 09:29:39;;;;;;;3.72;1.85;;;;;;;9.37;44.57;100163.81;2027209;80;20285;-80
2021/04/03 09:32:49;;;;;;;6.47;2.06;;;;;;;9.36;44.79;100164.66;2030666;77;20287;-80
2021/04/03 09:35:53;;;;;;;3.70;2.08;;;;;;;9.34;44.92;100161.19;2032803;79;20243;-79
2021/04/03 09:38:54;;;;;;;6.38;2.49;;;;;;;9.49;44.69;100159.63;2032184;79;20198;-80
2021/04/03 09:41:56;;;;;;;3.56;1.58;;;;;;;9.62;43.44;100159.78;2032952;79;20187;-79
2021/04/03 09:44:59;;;;;;;5.90;1.94;;;;;;;9.76;43.01;100169.47;2032107;79;21034;-80
2021/04/03 09:48:01;;;;;;;4.06;2.00;;;;;;;9.85;42.68;100160.03;2021798;77;26331;-79
2021/04/03 09:51:04;;;;;;;7.64;2.92;;;;;;;9.95;42.08;100164.50;2024574;80;20297;-81
2021/04/03 09:54:06;;;;;;;3.31;1.83;;;;;;;9.76;41.05;100156.50;2021855;80;20200;-79
2021/04/03 09:57:09;;;;;;;8.41;2.29;;;;;;;9.86;41.58;100176.47;2022049;80;20179;-78
2021/04/03 10:00:12;;;;;;;5.61;2.17;;;;;;;9.82;40.71;100165.19;2020895;80;21083;-78
2021/04/03 10:03:14;;;;;;;31.41;3.75;;;;;;;9.95;40.73;100161.91;2028217;79;20325;-76
2021/04/03 10:06:17;;;;;;;11.68;2.55;;;;;;;10.14;41.35;100169.88;2025609;80;20178;-79
2021/04/03 10:09:19;;;;;;;3.44;1.75;;;;;;;10.28;41.07;100166.59;2026793;79;20179;-78
2021/04/03 10:12:21;;;;;;;2.76;1.48;;;;;;;10.36;40.57;100176.16;2028882;80;20170;-81
2021/04/03 10:15:22;;;;;;;3.84;1.81;;;;;;;10.11;38.51;100175.91;2025568;77;20182;-77
2021/04/03 10:18:24;;;;;;;5.24;1.42;;;;;;;10.01;39.73;100176.66;2035831;79;20200;-77
2021/04/03 10:21:26;;;;;;;5.50;1.98;;;;;;;10.26;40.40;100175.22;2035683;79;21124;-77
2021/04/03 10:24:27;;;;;;;4.10;1.60;;;;;;;10.20;40.96;100178.56;2035367;79;20290;-77
2021/04/03 10:27:29;;;;;;;4.14;1.71;;;;;;;10.20;40.50;100180.28;2036108;79;20243;-79
2021/04/03 10:30:31;;;;;;;4.16;1.65;;;;;;;10.29;40.18;100176.09;2036247;77;20770;-80
2021/04/03 10:33:33;;;;;;;4.19;1.90;;;;;;;10.21;38.90;100177.75;2036353;79;20509;-78
2021/04/03 10:36:35;;;;;;;3.08;1.35;;;;;;;10.45;40.10;100179.72;2037211;79;20268;-79
2021/04/03 10:39:36;;;;;;;3.86;1.69;;;;;;;11.00;39.46;100184.47;2038488;79;20215;-77
2021/04/03 10:42:38;;;;;;;2.58;1.60;;;;;;;10.97;38.49;100177.53;2038134;79;20185;-77
2021/04/03 10:45:40;;;;;;;5.35;1.50;;;;;;;11.06;38.34;100181.88;2036664;77;20620;-77
2021/04/03 10:48:42;;;;;;;3.97;2.44;;;;;;;10.89;39.32;100193.03;2038769;79;20199;-77
2021/04/03 10:51:43;;;;;;;2.65;1.90;;;;;;;10.85;38.35;100190.41;2037675;79;20215;-78
2021/04/03 10:54:45;;;;;;;3.71;1.71;;;;;;;10.86;38.86;100181.75;2037710;79;20165;-77
2021/04/03 10:57:46;;;;;;;5.34;1.58;;;;;;;11.10;39.29;100181.03;2038554;79;20197;-78
2021/04/03 11:00:48;;;;;;;5.69;1.69;;;;;;;11.12;38.16;100181.91;2035415;78;22023;-77
2021/04/03 11:03:50;;;;;;;3.50;1.90;;;;;;;11.39;38.64;100173.41;2028024;79;20186;-78
2021/04/03 11:06:52;;;;;;;4.38;1.58;;;;;;;11.37;38.23;100164.75;2027532;79;20178;-77
2021/04/03 11:09:54;;;;;;;2.67;1.38;;;;;;;11.53;37.53;100160.47;2027674;79;20244;-77
2021/04/03 11:12:56;;;;;;;5.05;1.65;;;;;;;11.95;37.77;100160.66;2027953;79;20627;-77
2021/04/03 11:15:58;;;;;;;4.60;2.04;;;;;;;12.51;37.88;100156.38;2029086;77;22590;-79
2021/04/03 11:18:59;;;;;;;2.46;1.40;;;;;;;12.84;36.20;100145.94;2038342;79;20208;-77
2021/04/03 11:22:02;;;;;;;4.21;1.60;;;;;;;12.58;35.64;100158.13;2037348;79;20313;-77
2021/04/03 11:25:05;;;;;;;4.30;1.83;;;;;;;12.24;35.69;100152.03;2037457;79;20221;-77
2021/04/03 11:28:07;;;;;;;4.94;1.67;;;;;;;12.10;36.76;100147.66;2036957;79;20198;-77
2021/04/03 11:31:09;;;;;;;3.41;1.50;;;;;;;11.78;38.06;100155.38;2035583;77;20193;-77
2021/04/03 11:34:11;;;;;;;4.99;1.75;;;;;;;12.27;38.35;100149.41;2036858;79;20206;-78
2021/04/03 11:37:12;;;;;;;4.49;1.70;;;;;;;12.54;37.07;100143.34;2037573;79;20165;-77
2021/04/03 11:40:15;;;;;;;3.71;1.59;;;;;;;12.81;35.94;100140.72;2036714;79;20188;-77
2021/04/03 11:43:18;;;;;;;3.36;1.60;;;;;;;13.52;36.04;100139.69;2035882;79;20206;-77
2021/04/03 11:46:20;;;;;;;5.70;2.41;;;;;;;14.00;34.51;100137.66;2036252;77;21195;-77
2021/04/03 11:49:21;;;;;;;3.40;1.75;;;;;;;14.17;33.75;100137.56;2036336;79;20745;-77
2021/04/03 11:52:24;;;;;;;2.55;1.09;;;;;;;14.72;32.81;100124.97;2036748;79;20172;-77
2021/04/03 11:55:26;;;;;;;3.64;1.45;;;;;;;15.15;32.75;100124.50;2035954;79;20258;-78
2021/04/03 11:58:28;;;;;;;3.61;1.54;;;;;;;15.31;32.10;100127.81;2038286;79;20165;-77
2021/04/03 12:01:31;;;;;;;3.35;1.69;;;;;;;14.80;31.87;100128.34;2036057;77;21480;-77
2021/04/03 12:04:32;;;;;;;2.47;1.10;;;;;;;14.29;32.03;100116.56;2036523;79;20169;-77
2021/04/03 12:07:39;;;;;;;5.19;1.35;;;;;;;14.02;31.87;100127.25;2037010;79;20214;-77
2021/04/03 12:10:41;;;;;;;3.45;1.27;;;;;;;13.57;32.53;100117.03;2035831;79;20172;-77
2021/04/03 12:13:42;;;;;;;3.47;1.08;;;;;;;13.50;32.20;100099.69;2036817;79;20185;-75
2021/04/03 12:16:44;;;;;;;4.25;0.90;;;;;;;13.56;33.04;100099.66;2030081;77;20361;-77
2021/04/03 12:19:45;;;;;;;3.74;0.90;;;;;;;13.65;33.56;100103.09;2026174;79;20162;-79
2021/04/03 12:22:47;;;;;;;4.72;1.40;;;;;;;13.57;33.01;100093.56;2028713;79;20230;-78
2021/04/03 12:25:49;;;;;;;5.26;1.36;;;;;;;13.37;33.91;100111.03;2024947;79;20684;-74
2021/04/03 12:28:51;;;;;;;3.74;0.80;;;;;;;12.98;33.14;100093.78;2026322;79;20195;-76
2021/04/03 12:31:53;;;;;;;4.86;1.41;;;;;;;13.09;34.73;100102.41;2024770;77;22974;-77
2021/04/03 12:34:54;;;;;;;2.66;0.90;;;;;;;12.65;33.13;100095.56;2025213;79;21110;-74
2021/04/03 12:37:56;;;;;;;4.84;1.19;;;;;;;12.47;33.62;100093.00;2025214;79;20196;-73
2021/04/03 12:40:58;;;;;;;2.65;0.90;;;;;;;12.65;34.92;100094.72;2024606;79;20192;-74
2021/04/03 12:44:00;;;;;;;2.94;1.06;;;;;;;12.44;34.09;100086.91;2024768;79;20171;-74
2021/04/03 12:47:03;;;;;;;1.88;0.84;;;;;;;12.59;33.65;100092.13;2027264;77;21618;-75
2021/04/03 12:50:07;;;;;;;4.20;1.21;;;;;;;12.66;33.66;100080.81;2031013;79;20214;-75
2021/04/03 12:53:09;;;;;;;3.28;1.02;;;;;;;13.46;33.06;100076.19;2029981;79;21040;-75
2021/04/03 12:56:11;;;;;;;3.53;1.76;;;;;;;14.02;33.26;100060.22;2030159;79;20230;-75
2021/04/03 12:59:13;;;;;;;1.46;0.86;;;;;;;14.65;32.01;100055.31;2030541;79;20177;-76
2021/04/03 13:02:16;;;;;;;3.58;0.89;;;;;;;15.10;32.32;100055.69;2026067;77;22347;-75
2021/04/03 13:05:18;;;;;;;4.81;1.08;;;;;;;15.45;30.58;100050.00;2025203;79;20826;-75
2021/04/03 13:08:19;;;;;;;5.05;1.27;;;;;;;14.88;29.29;100060.28;2024939;79;20393;-76
2021/04/03 13:11:22;;;;;;;2.04;0.90;;;;;;;14.62;29.88;100057.97;2025189;79;20794;-74
2021/04/03 13:14:23;;;;;;;3.13;0.84;;;;;;;14.41;30.71;100055.53;2025375;79;20202;-73
2021/04/03 13:17:25;;;;;;;3.30;0.91;;;;;;;14.40;30.01;100045.97;2028123;77;20731;-75
2021/04/03 13:20:26;;;;;;;3.46;1.10;;;;;;;14.87;30.67;100037.63;2031201;79;20177;-73
2021/04/03 13:23:28;;;;;;;3.91;0.80;;;;;;;15.14;30.12;100028.59;2030721;79;20581;-74
2021/04/03 13:26:30;;;;;;;5.03;1.35;;;;;;;15.34;29.89;100033.56;2031647;79;20197;-75
2021/04/03 13:29:31;;;;;;;4.26;1.01;;;;;;;15.73;29.97;100040.03;2031326;79;20583;-73
2021/04/03 13:32:34;;;;;;;4.09;1.09;;;;;;;15.43;27.87;100030.81;2025810;77;21214;-75
2021/04/03 13:35:36;;;;;;;1.52;0.98;;;;;;;15.53;28.39;100027.19;2027540;80;20641;-80
2021/04/03 13:38:37;;;;;;;2.39;0.75;;;;;;;15.63;28.80;100012.25;2027349;80;20588;-80
2021/04/03 13:41:40;;;;;;;2.11;0.70;;;;;;;15.96;28.24;100035.28;2028374;80;20182;-79
2021/04/03 13:44:41;;;;;;;1.80;0.60;;;;;;;15.43;27.10;100015.09;2026169;80;20174;-78
2021/04/03 13:47:43;;;;;;;3.81;0.80;;;;;;;15.20;27.48;100022.41;2030347;77;20740;-80
2021/04/03 13:50:44;;;;;;;1.67;0.70;;;;;;;15.18;27.00;100014.59;2032624;79;20223;-79
2021/04/03 13:53:46;;;;;;;2.19;0.54;;;;;;;15.05;26.89;100023.47;2031343;79;20173;-79
2021/04/03 13:56:48;;;;;;;4.35;0.64;;;;;;;14.81;26.68;100016.78;2031938;79;20178;-79
2021/04/03 13:59:49;;;;;;;1.54;0.70;;;;;;;14.91;27.02;100010.59;2031407;79;20181;-80
2021/04/03 14:02:51;;;;;;;1.55;0.54;;;;;;;15.10;27.11;100009.47;2026473;77;65548;-80
2021/04/03 14:05:53;;;;;;;2.60;0.65;;;;;;;15.14;26.54;100010.28;2027207;79;20170;-79
2021/04/03 14:08:54;;;;;;;2.69;0.73;;;;;;;15.10;26.60;100009.47;2027928;79;20695;-80
2021/04/03 14:11:56;;;;;;;2.20;0.84;;;;;;;15.47;26.60;100016.81;2030008;79;20224;-76
2021/04/03 14:14:58;;;;;;;3.96;1.11;;;;;;;15.44;25.90;100006.41;2026772;79;20174;-75
2021/04/03 14:18:00;;;;;;;1.61;0.51;;;;;;;15.36;26.09;100016.97;2025588;77;21041;-74
2021/04/03 14:21:08;;;;;;;2.06;0.47;;;;;;;15.62;26.04;100007.91;2026852;79;20196;-74
2021/04/03 14:24:26;;;;;;;1.19;0.60;;;;;;;15.57;25.49;100009.69;2026123;79;20769;-76